Debi Sharp — WDE8185 — position and weather

sailwx.info

Track history (hours):
 
Tides and Currents Weather Stations Pressure Air Temp Water Temp Dewpoint Dewpoint Depression Visibility Wind Speed Wind Dir Waves Ship Positions

Debi Sharp

Owner: Crounse Corporation, Maysville, KY. More information available from US FCC via Universal Licensing System and Coast Guard Vessel Documentation Center.

Last reported at 2015-Nov-12 13:33 UTC. Time now 2016-May-03 01:11 UTC.
Position N 38°47' W 084°09'.
Warning: this ship's position is months out of date.

Length 41 m.

Type: Towing. MMSI: 367402530.

Date/timePositionNaut miles runAvg speedWind from/ knotsBaromVisibWave heightAir tempDewpointWater temp
2015-Nov-12 13:33N 38°47' W 084°09'2 2.2
2015-Nov-12 12:31N 38°48' W 084°12'4 3.8
2015-Nov-12 11:30N 38°51' W 084°14'4 4.0
2015-Nov-12 10:33N 38°55' W 084°15'4 4.2
2015-Nov-12 09:33N 38°59' W 084°18'4 4.0
2015-Nov-12 08:33N 39°02' W 084°21'4 4.3
2015-Nov-12 07:33N 39°04' W 084°26'4 4.0
2015-Nov-12 06:33N 39°07' W 084°28'4 4.2
2015-Nov-12 05:33N 39°06' W 084°33'4 4.3
2015-Nov-12 04:33N 39°05' W 084°39'5 5.0
2015-Nov-12 03:33N 39°08' W 084°44'4 3.9
2015-Nov-12 02:32N 39°07' W 084°48'3 2.5
2015-Nov-12 01:13N 39°05' W 084°52'  
Track history (hours):
 
Tides and Currents Weather Stations Pressure Air Temp Water Temp Dewpoint Dewpoint Depression Visibility Wind Speed Wind Dir Waves Ship Positions

Debi Sharp

Owner: Crounse Corporation, Maysville, KY. More information available from US FCC via Universal Licensing System and Coast Guard Vessel Documentation Center.

Last reported at 2015-Nov-12 13:33 UTC. Time now 2016-May-03 01:11 UTC.
Position N 38°47' W 084°09'.
Warning: this ship's position is months out of date.

Length 41 m.

Type: Towing. MMSI: 367402530.

Date/timePositionNaut miles runAvg speedWind from/ knotsBaromVisibWave heightAir tempDewpointWater temp
2015-Nov-12 13:33N 38°47' W 084°09'2 2.2
2015-Nov-12 12:31N 38°48' W 084°12'4 3.8
2015-Nov-12 11:30N 38°51' W 084°14'4 4.0
2015-Nov-12 10:33N 38°55' W 084°15'4 4.2
2015-Nov-12 09:33N 38°59' W 084°18'4 4.0
2015-Nov-12 08:33N 39°02' W 084°21'4 4.3
2015-Nov-12 07:33N 39°04' W 084°26'4 4.0
2015-Nov-12 06:33N 39°07' W 084°28'4 4.2
2015-Nov-12 05:33N 39°06' W 084°33'4 4.3
2015-Nov-12 04:33N 39°05' W 084°39'5 5.0
2015-Nov-12 03:33N 39°08' W 084°44'4 3.9
2015-Nov-12 02:32N 39°07' W 084°48'3 2.5
2015-Nov-12 01:13N 39°05' W 084°52'  

Dump ship's entire track history